createdAt,value
2023-05-05T00:02:09.981Z,22.98
2023-05-05T00:05:14.170Z,23.01
2023-05-05T00:08:17.050Z,23.02
2023-05-05T00:11:19.798Z,23.04
2023-05-05T00:14:22.580Z,23.06
2023-05-05T00:17:25.397Z,23.04
2023-05-05T00:20:29.640Z,23.02
2023-05-05T00:23:32.487Z,23.00
2023-05-05T00:26:35.267Z,22.91
2023-05-05T00:29:38.043Z,22.98
2023-05-05T00:32:40.995Z,22.97
2023-05-05T00:35:46.569Z,23.04
2023-05-05T00:38:49.481Z,22.93
2023-05-05T00:41:52.284Z,22.92
2023-05-05T00:44:55.113Z,22.93
2023-05-05T00:47:58.658Z,22.90
2023-05-05T00:51:02.881Z,22.89
2023-05-05T00:54:06.568Z,22.88
2023-05-05T00:57:09.573Z,22.88
2023-05-05T01:00:12.789Z,22.97
2023-05-05T01:03:15.701Z,22.95
2023-05-05T01:06:25.425Z,22.90
2023-05-05T01:09:36.274Z,22.91
2023-05-05T01:12:44.650Z,22.93
2023-05-05T01:15:49.334Z,22.91
2023-05-05T01:18:55.718Z,22.91
2023-05-05T01:22:01.518Z,22.95
2023-05-05T01:25:22.793Z,22.91
2023-05-05T01:28:29.116Z,22.86
2023-05-05T01:31:51.653Z,22.90
2023-05-05T01:34:56.913Z,22.87
2023-05-05T01:38:01.858Z,22.92
2023-05-05T01:41:06.549Z,22.85
2023-05-05T01:44:10.713Z,22.85
2023-05-05T01:47:16.988Z,22.82
2023-05-05T01:50:20.562Z,22.78
2023-05-05T01:53:24.824Z,22.82
2023-05-05T01:56:28.434Z,22.86
2023-05-05T01:59:31.818Z,22.82
2023-05-05T02:02:36.873Z,22.86
2023-05-05T02:05:40.907Z,22.86
2023-05-05T02:08:45.112Z,22.84
2023-05-05T02:11:48.029Z,22.86
2023-05-05T02:14:51.073Z,22.84
2023-05-05T02:17:55.630Z,22.81
2023-05-05T02:20:58.431Z,22.78
2023-05-05T02:24:01.417Z,22.83
2023-05-05T02:27:05.245Z,22.81
2023-05-05T02:30:09.838Z,22.88
2023-05-05T02:33:17.635Z,22.87
2023-05-05T02:36:21.958Z,22.89
2023-05-05T02:39:27.481Z,22.90
2023-05-05T02:42:33.443Z,22.89
2023-05-05T02:45:36.207Z,22.75
2023-05-05T02:48:40.426Z,22.80
2023-05-05T02:51:43.335Z,22.82
2023-05-05T02:54:46.180Z,22.76
2023-05-05T02:57:51.028Z,22.83
2023-05-05T03:00:57.071Z,22.82
2023-05-05T03:04:08.437Z,22.82
2023-05-05T03:07:14.422Z,22.80
2023-05-05T03:10:18.906Z,22.84
2023-05-05T03:13:21.963Z,22.84
2023-05-05T03:16:25.810Z,22.83
2023-05-05T03:19:30.816Z,22.81
2023-05-05T03:22:36.692Z,22.82
2023-05-05T03:25:42.827Z,22.83
2023-05-05T03:28:45.647Z,22.80
2023-05-05T03:31:48.501Z,22.88
2023-05-05T03:34:52.675Z,22.84
2023-05-05T03:37:55.802Z,22.90
2023-05-05T03:40:58.675Z,22.88
2023-05-05T03:44:01.617Z,22.85
2023-05-05T03:47:04.474Z,22.82
2023-05-05T03:50:09.713Z,22.87
2023-05-05T03:53:12.657Z,22.93
2023-05-05T03:56:15.532Z,22.96
2023-05-05T03:59:18.518Z,22.94
2023-05-05T04:02:21.423Z,22.91
2023-05-05T04:05:25.634Z,22.95
2023-05-05T04:08:28.477Z,22.95
2023-05-05T04:11:31.419Z,22.97
2023-05-05T04:14:34.200Z,22.96
2023-05-05T04:17:37.001Z,22.98
2023-05-05T04:20:41.141Z,23.01
2023-05-05T04:23:43.992Z,23.00
2023-05-05T04:26:46.755Z,23.09
2023-05-05T04:29:49.577Z,22.37
2023-05-05T04:32:52.369Z,22.17
2023-05-05T04:35:56.595Z,22.15
2023-05-05T04:38:59.484Z,22.06
2023-05-05T04:42:02.402Z,22.02
2023-05-05T04:45:05.491Z,21.98
2023-05-05T04:48:08.424Z,21.96
2023-05-05T04:51:12.888Z,22.00
2023-05-05T04:54:15.681Z,22.05
2023-05-05T04:57:18.425Z,22.52
2023-05-05T05:00:21.740Z,22.86
2023-05-05T05:03:24.631Z,22.96
2023-05-05T05:06:29.388Z,23.03
2023-05-05T05:09:32.144Z,23.08
2023-05-05T05:12:34.936Z,23.11
2023-05-05T05:15:38.288Z,23.08
2023-05-05T05:18:41.138Z,23.15
2023-05-05T05:21:45.218Z,23.24
2023-05-05T05:24:48.034Z,23.24
2023-05-05T05:28:02.298Z,23.28
2023-05-05T05:31:12.238Z,23.32
2023-05-05T05:34:15.092Z,23.30
2023-05-05T05:37:19.834Z,23.34
2023-05-05T05:40:22.800Z,23.35
2023-05-05T05:43:25.884Z,23.41
2023-05-05T05:46:28.888Z,23.44
2023-05-05T05:49:32.156Z,23.47
2023-05-05T05:52:36.571Z,23.49
2023-05-05T05:55:41.849Z,22.91
2023-05-05T05:58:45.411Z,22.79
2023-05-05T06:01:48.369Z,22.66
2023-05-05T06:04:52.201Z,22.56
2023-05-05T06:07:57.997Z,22.53
2023-05-05T06:11:05.006Z,22.56
2023-05-05T06:14:08.553Z,22.84
2023-05-05T06:17:11.779Z,22.52
2023-05-05T06:20:15.901Z,22.55
2023-05-05T06:23:20.480Z,22.68
2023-05-05T06:26:23.691Z,22.65
2023-05-05T06:29:27.086Z,22.86
2023-05-05T06:32:30.309Z,22.84
2023-05-05T06:35:34.779Z,22.58
2023-05-05T06:38:39.257Z,23.44
2023-05-05T06:41:43.082Z,23.59
2023-05-05T06:44:46.802Z,23.58
2023-05-05T06:47:50.733Z,23.68
2023-05-05T06:50:56.660Z,23.73
2023-05-05T06:54:01.136Z,23.67
2023-05-05T06:57:04.158Z,23.64
2023-05-05T07:00:09.912Z,23.65
2023-05-05T07:03:15.898Z,23.73
2023-05-05T07:06:19.123Z,23.77
2023-05-05T07:09:23.683Z,23.82
2023-05-05T07:12:26.775Z,23.81
2023-05-05T07:15:29.966Z,23.78
2023-05-05T07:18:32.927Z,23.81
2023-05-05T07:21:36.156Z,23.90
2023-05-05T07:24:40.334Z,23.83
2023-05-05T07:27:43.124Z,23.86
2023-05-05T07:30:46.021Z,23.87
2023-05-05T07:33:49.604Z,23.83
2023-05-05T07:36:52.333Z,23.89
2023-05-05T07:39:56.613Z,23.74
2023-05-05T07:42:59.334Z,23.69
2023-05-05T07:46:02.106Z,23.70
2023-05-05T07:49:04.947Z,23.79
2023-05-05T07:52:07.737Z,23.80
2023-05-05T07:55:11.869Z,23.81
2023-05-05T07:58:14.640Z,23.83
2023-05-05T08:01:17.401Z,23.88
2023-05-05T08:04:20.255Z,23.83
2023-05-05T08:07:23.113Z,23.74
2023-05-05T08:10:27.259Z,23.79
2023-05-05T08:13:30.525Z,23.78
2023-05-05T08:16:33.356Z,23.78
2023-05-05T08:19:36.194Z,23.84
2023-05-05T08:22:38.956Z,23.79
2023-05-05T08:25:43.167Z,23.76
2023-05-05T08:28:46.722Z,23.83
2023-05-05T08:31:49.580Z,23.91
2023-05-05T08:34:52.363Z,23.91
2023-05-05T08:37:56.674Z,23.91
2023-05-05T08:41:03.730Z,23.95
2023-05-05T08:44:06.506Z,24.00
2023-05-05T08:47:12.005Z,23.98
2023-05-05T08:50:16.001Z,24.00
2023-05-05T08:53:19.035Z,23.97
2023-05-05T08:56:23.344Z,23.96
2023-05-05T08:59:30.343Z,23.96
2023-05-05T09:02:33.879Z,23.94
2023-05-05T09:05:36.964Z,23.94
2023-05-05T09:08:40.036Z,23.96
2023-05-05T09:11:45.027Z,23.89
2023-05-05T09:14:48.154Z,23.93
2023-05-05T09:17:51.179Z,23.93
2023-05-05T09:20:54.092Z,23.89
2023-05-05T09:24:09.153Z,23.93
2023-05-05T09:27:23.656Z,24.00
2023-05-05T09:30:27.159Z,24.03
2023-05-05T09:33:30.860Z,24.01
2023-05-05T09:36:44.252Z,24.02
2023-05-05T09:39:54.749Z,24.08
2023-05-05T09:43:03.259Z,24.04
2023-05-05T09:46:08.944Z,24.02
2023-05-05T09:49:18.759Z,24.08
2023-05-05T09:52:21.934Z,24.05
2023-05-05T09:55:24.787Z,24.04
2023-05-05T09:58:29.468Z,24.09
2023-05-05T10:01:32.288Z,24.06
2023-05-05T10:04:36.141Z,24.11
2023-05-05T10:07:39.325Z,24.10
2023-05-05T10:10:47.808Z,24.08
2023-05-05T10:13:51.940Z,24.09
2023-05-05T10:16:55.850Z,24.08
2023-05-05T10:19:59.965Z,24.07
2023-05-05T10:23:03.709Z,24.01
2023-05-05T10:26:07.474Z,24.03
2023-05-05T10:29:14.689Z,24.01
2023-05-05T10:32:51.144Z,24.03
2023-05-05T10:35:48.487Z,23.98
2023-05-05T10:38:53.229Z,23.98
2023-05-05T10:41:56.003Z,23.97
2023-05-05T10:45:00.261Z,23.94
2023-05-05T10:48:05.521Z,23.91
2023-05-05T10:51:27.406Z,23.91
2023-05-05T10:54:38.468Z,23.88
2023-05-05T10:57:42.913Z,23.90
2023-05-05T11:00:53.491Z,23.26
2023-05-05T11:04:11.212Z,23.06
2023-05-05T11:07:24.544Z,23.03
2023-05-05T11:10:27.345Z,22.91
2023-05-05T11:13:30.212Z,22.70
2023-05-05T11:16:55.212Z,22.75
2023-05-05T11:19:59.393Z,23.32
2023-05-05T11:23:20.297Z,23.73
2023-05-05T11:26:41.477Z,23.91
2023-05-05T11:30:03.699Z,23.92
2023-05-05T11:33:24.965Z,24.05
2023-05-05T11:36:41.834Z,24.10
2023-05-05T11:39:52.217Z,24.04
2023-05-05T11:43:05.402Z,24.05
2023-05-05T11:46:11.566Z,24.06
2023-05-05T11:49:27.110Z,24.11
2023-05-05T11:52:31.244Z,24.12
2023-05-05T11:55:34.024Z,24.11
2023-05-05T11:58:36.817Z,24.13
2023-05-05T12:01:40.977Z,24.15
2023-05-05T12:04:43.895Z,24.09
2023-05-05T12:07:48.102Z,23.44
2023-05-05T12:10:50.894Z,23.30
2023-05-05T12:14:08.066Z,23.35
2023-05-05T12:17:10.841Z,23.10
2023-05-05T12:20:14.038Z,23.21
2023-05-05T12:23:18.271Z,23.34
2023-05-05T12:26:25.506Z,23.28
2023-05-05T12:29:30.065Z,23.37
2023-05-05T12:32:32.845Z,23.22
2023-05-05T12:35:35.919Z,23.03
2023-05-05T12:38:40.172Z,23.04
2023-05-05T12:41:42.984Z,22.91
2023-05-05T12:44:46.813Z,22.92
2023-05-05T12:47:49.678Z,22.84
2023-05-05T12:50:52.748Z,22.91
2023-05-05T12:54:07.307Z,22.83
2023-05-05T12:57:12.517Z,22.64
2023-05-05T13:00:16.362Z,22.58
2023-05-05T13:03:20.382Z,22.79
2023-05-05T13:06:24.821Z,22.74
2023-05-05T13:09:30.439Z,22.68
2023-05-05T13:12:33.299Z,22.75
2023-05-05T13:15:36.614Z,22.69
2023-05-05T13:18:45.789Z,22.82
2023-05-05T13:21:48.580Z,22.99
2023-05-05T13:24:53.078Z,22.88
2023-05-05T13:27:55.865Z,22.82
2023-05-05T13:30:59.734Z,22.73
2023-05-05T13:34:02.618Z,22.71
2023-05-05T13:37:05.385Z,22.76
2023-05-05T13:40:10.798Z,22.69
2023-05-05T13:43:13.620Z,22.90
2023-05-05T13:46:20.096Z,22.75
2023-05-05T13:49:25.048Z,22.95
2023-05-05T13:52:29.018Z,22.90
2023-05-05T13:55:34.623Z,22.83
2023-05-05T13:58:37.982Z,22.83
2023-05-05T14:01:40.916Z,22.79
2023-05-05T14:04:43.737Z,22.80
2023-05-05T14:07:46.925Z,22.88
2023-05-05T14:10:52.175Z,22.91
2023-05-05T14:13:55.205Z,23.01
2023-05-05T14:16:58.138Z,22.82
2023-05-05T14:20:00.981Z,22.82
2023-05-05T14:23:03.746Z,22.89
2023-05-05T14:26:09.130Z,22.84
2023-05-05T14:29:12.003Z,23.00
2023-05-05T14:32:14.831Z,23.09
2023-05-05T14:35:17.784Z,23.72
2023-05-05T14:38:20.702Z,23.63
2023-05-05T14:41:24.947Z,23.49
2023-05-05T14:44:28.424Z,23.25
2023-05-05T14:47:31.212Z,23.30
2023-05-05T14:50:33.988Z,23.05
2023-05-05T14:53:36.940Z,23.04
2023-05-05T14:56:41.170Z,22.85
2023-05-05T14:59:45.781Z,22.87
2023-05-05T15:02:49.343Z,22.75
2023-05-05T15:08:54.814Z,22.65
2023-05-05T15:11:58.910Z,22.62
2023-05-05T15:15:01.694Z,22.67
2023-05-05T15:18:04.667Z,22.60
2023-05-05T15:21:07.600Z,22.69
2023-05-05T15:24:10.675Z,22.65
2023-05-05T15:27:14.834Z,22.59
2023-05-05T15:30:17.775Z,22.52
2023-05-05T15:33:20.606Z,22.54
2023-05-05T15:36:24.751Z,22.52
2023-05-05T15:39:27.574Z,22.46
2023-05-05T15:42:32.962Z,22.34
2023-05-05T15:45:36.055Z,22.42
2023-05-05T15:48:38.770Z,22.47
2023-05-05T15:51:41.877Z,22.33
2023-05-05T15:54:44.718Z,22.47
2023-05-05T15:57:48.812Z,22.25
2023-05-05T16:00:51.687Z,22.29
2023-05-05T16:03:54.456Z,22.30
2023-05-05T16:06:58.134Z,22.20
2023-05-05T16:10:00.961Z,22.21
2023-05-05T16:13:05.226Z,22.61
2023-05-05T16:16:08.269Z,22.92
2023-05-05T16:19:11.080Z,22.78
2023-05-05T16:22:13.884Z,22.93
2023-05-05T16:25:18.449Z,22.90
2023-05-05T16:28:22.512Z,23.07
2023-05-05T16:31:25.329Z,22.97
2023-05-05T16:34:28.248Z,22.92
2023-05-05T16:37:31.083Z,22.92
2023-05-05T16:40:33.832Z,22.87
2023-05-05T16:43:38.178Z,22.82
2023-05-05T16:46:41.024Z,22.83
2023-05-05T16:49:44.029Z,22.84
2023-05-05T16:52:46.875Z,22.85
2023-05-05T16:55:50.874Z,22.85
2023-05-05T16:58:55.024Z,22.85
2023-05-05T17:01:57.896Z,22.86
2023-05-05T17:05:00.785Z,22.89
2023-05-05T17:08:03.989Z,22.84
2023-05-05T17:11:06.799Z,22.91
2023-05-05T17:14:11.036Z,22.86
2023-05-05T17:17:13.868Z,22.90
2023-05-05T17:20:16.730Z,22.91
2023-05-05T17:23:21.223Z,22.85
2023-05-05T17:26:24.209Z,22.78
2023-05-05T17:29:28.508Z,22.82
2023-05-05T17:32:31.389Z,22.79
2023-05-05T17:35:34.206Z,22.85
2023-05-05T17:38:36.968Z,22.86
2023-05-05T17:41:39.721Z,22.81
2023-05-05T17:44:45.021Z,22.82
2023-05-05T17:47:49.259Z,22.81
2023-05-05T17:50:52.342Z,22.81
2023-05-05T17:53:55.101Z,22.78
2023-05-05T17:56:57.848Z,22.75
2023-05-05T18:00:03.404Z,22.75
2023-05-05T18:03:06.367Z,22.73
2023-05-05T18:06:09.331Z,22.71
2023-05-05T18:09:12.217Z,22.70
2023-05-05T18:12:14.986Z,22.76
2023-05-05T18:15:19.165Z,22.76
2023-05-05T18:18:22.315Z,22.65
2023-05-05T18:21:25.107Z,22.67
2023-05-05T18:24:28.236Z,22.61
2023-05-05T18:27:32.516Z,22.69
2023-05-05T18:30:36.801Z,22.73
2023-05-05T18:33:39.629Z,22.75
2023-05-05T18:36:42.422Z,22.71
2023-05-05T18:39:45.281Z,22.72
2023-05-05T18:42:48.241Z,22.81
2023-05-05T18:45:52.802Z,22.76
2023-05-05T18:48:55.955Z,22.76
2023-05-05T18:51:58.672Z,22.76
2023-05-05T18:55:01.649Z,21.82
2023-05-05T18:58:04.487Z,21.56
2023-05-05T19:01:08.952Z,21.57
2023-05-05T19:04:26.553Z,21.58
2023-05-05T19:07:35.788Z,21.36
2023-05-05T19:10:38.880Z,21.17
2023-05-05T19:13:43.028Z,20.87
2023-05-05T19:16:48.594Z,20.71
2023-05-05T19:19:51.596Z,20.61
2023-05-05T19:22:55.251Z,20.67
2023-05-05T19:25:58.234Z,20.40
2023-05-05T19:29:01.073Z,20.53
2023-05-05T19:32:05.520Z,20.47
2023-05-05T19:35:10.702Z,20.16
2023-05-05T19:38:13.674Z,20.30
2023-05-05T19:41:17.901Z,20.04
2023-05-05T19:44:22.548Z,20.07
2023-05-05T19:47:27.096Z,19.99
2023-05-05T19:50:30.773Z,20.11
2023-05-05T19:53:34.589Z,20.02
2023-05-05T19:56:37.360Z,20.18
2023-05-05T19:59:40.266Z,19.96
2023-05-05T20:02:45.405Z,20.08
2023-05-05T20:05:48.260Z,19.90
2023-05-05T20:08:51.164Z,19.93
2023-05-05T20:11:53.959Z,19.83
2023-05-05T20:14:56.706Z,19.88
2023-05-05T20:18:00.965Z,19.65
2023-05-05T20:21:03.976Z,19.52
2023-05-05T20:24:07.293Z,20.76
2023-05-05T20:27:10.031Z,21.34
2023-05-05T20:30:13.590Z,21.50
2023-05-05T20:33:17.762Z,21.64
2023-05-05T20:36:20.610Z,21.67
2023-05-05T20:39:23.429Z,21.75
2023-05-05T20:42:27.858Z,21.82
2023-05-05T20:45:31.786Z,21.87
2023-05-05T20:48:36.950Z,21.91
2023-05-05T20:51:42.889Z,21.87
2023-05-05T20:54:45.651Z,21.91
2023-05-05T20:57:48.474Z,21.95
2023-05-05T21:00:51.322Z,21.96
2023-05-05T21:03:55.452Z,22.00
2023-05-05T21:06:58.507Z,21.99
2023-05-05T21:10:01.398Z,22.19
2023-05-05T21:13:04.436Z,22.05
2023-05-05T21:16:07.424Z,22.05
2023-05-05T21:19:11.584Z,22.02
2023-05-05T21:22:14.381Z,22.07
2023-05-05T21:25:17.849Z,22.10
2023-05-05T21:28:20.653Z,22.08
2023-05-05T21:31:23.502Z,22.03
2023-05-05T21:34:27.692Z,22.05
2023-05-05T21:37:30.950Z,22.06
2023-05-05T21:40:33.713Z,22.09
2023-05-05T21:43:36.718Z,22.06
2023-05-05T21:46:39.622Z,22.01
2023-05-05T21:49:43.868Z,22.13
2023-05-05T21:52:46.586Z,22.09
2023-05-05T21:55:49.533Z,22.10
2023-05-05T21:58:52.263Z,22.07
2023-05-05T22:01:55.204Z,22.08
2023-05-05T22:04:59.496Z,22.12
2023-05-05T22:08:02.353Z,22.09
2023-05-05T22:11:05.205Z,22.10
2023-05-05T22:14:07.953Z,22.13
2023-05-05T22:17:10.745Z,22.14
2023-05-05T22:20:15.068Z,21.06
2023-05-05T22:23:20.925Z,20.19
2023-05-05T22:26:23.678Z,20.10
2023-05-05T22:29:26.571Z,19.87
2023-05-05T22:32:29.391Z,20.52
2023-05-05T22:35:33.626Z,21.08
2023-05-05T22:38:36.394Z,21.41
2023-05-05T22:41:39.175Z,21.53
2023-05-05T22:44:41.920Z,21.55
2023-05-05T22:47:44.759Z,21.60
2023-05-05T22:50:48.878Z,21.61
2023-05-05T22:53:51.682Z,21.69
2023-05-05T22:56:54.423Z,21.80
2023-05-05T22:59:57.256Z,21.70
2023-05-05T23:03:00.048Z,21.74
2023-05-05T23:06:04.272Z,21.71
2023-05-05T23:09:07.033Z,21.73
2023-05-05T23:12:09.788Z,21.75
2023-05-05T23:15:12.925Z,21.76
2023-05-05T23:18:15.796Z,21.79
2023-05-05T23:21:19.928Z,21.73
2023-05-05T23:24:22.814Z,21.78
2023-05-05T23:27:25.731Z,21.75
2023-05-05T23:30:28.504Z,21.75
2023-05-05T23:33:31.402Z,21.78
2023-05-05T23:36:35.531Z,21.77
2023-05-05T23:39:38.306Z,21.78
2023-05-05T23:42:41.075Z,21.78
2023-05-05T23:45:43.806Z,21.82
2023-05-05T23:48:46.646Z,21.84
2023-05-05T23:51:50.852Z,21.80
2023-05-05T23:54:53.642Z,21.81
2023-05-05T23:57:56.507Z,21.76
